sensor_id;sensor_type;location;lat;lon;timestamp;P1;durP1;ratioP1;P2;durP2;ratioP2
49464;SDS011;35358;49.342;8.802;2023-03-01T00:00:04;11.93;;;7.68;;
49464;SDS011;35358;49.342;8.802;2023-03-01T00:02:30;15.70;;;8.63;;
49464;SDS011;35358;49.342;8.802;2023-03-01T00:04:57;12.60;;;7.70;;
49464;SDS011;35358;49.342;8.802;2023-03-01T00:07:23;11.38;;;7.75;;
49464;SDS011;35358;49.342;8.802;2023-03-01T00:09:49;13.50;;;8.02;;
49464;SDS011;35358;49.342;8.802;2023-03-01T00:12:17;12.20;;;7.50;;
49464;SDS011;35358;49.342;8.802;2023-03-01T00:14:42;12.48;;;7.70;;
49464;SDS011;35358;49.342;8.802;2023-03-01T00:17:10;13.85;;;7.70;;
49464;SDS011;35358;49.342;8.802;2023-03-01T00:19:38;12.20;;;8.00;;
49464;SDS011;35358;49.342;8.802;2023-03-01T00:22:08;12.25;;;8.32;;
49464;SDS011;35358;49.342;8.802;2023-03-01T00:24:34;12.40;;;7.80;;
49464;SDS011;35358;49.342;8.802;2023-03-01T00:26:59;11.30;;;7.28;;
49464;SDS011;35358;49.342;8.802;2023-03-01T00:29:27;12.68;;;8.02;;
49464;SDS011;35358;49.342;8.802;2023-03-01T00:31:55;12.85;;;8.00;;
49464;SDS011;35358;49.342;8.802;2023-03-01T00:34:20;12.18;;;8.38;;
49464;SDS011;35358;49.342;8.802;2023-03-01T00:36:48;17.17;;;9.32;;
49464;SDS011;35358;49.342;8.802;2023-03-01T00:39:17;15.35;;;7.72;;
49464;SDS011;35358;49.342;8.802;2023-03-01T00:41:45;13.32;;;8.30;;
49464;SDS011;35358;49.342;8.802;2023-03-01T00:44:16;11.85;;;8.38;;
49464;SDS011;35358;49.342;8.802;2023-03-01T00:46:44;15.88;;;8.50;;
49464;SDS011;35358;49.342;8.802;2023-03-01T00:49:11;18.30;;;9.27;;
49464;SDS011;35358;49.342;8.802;2023-03-01T00:51:40;14.13;;;8.43;;
49464;SDS011;35358;49.342;8.802;2023-03-01T00:54:09;16.73;;;9.10;;
49464;SDS011;35358;49.342;8.802;2023-03-01T00:56:35;13.75;;;8.52;;
49464;SDS011;35358;49.342;8.802;2023-03-01T00:59:02;14.50;;;9.27;;
49464;SDS011;35358;49.342;8.802;2023-03-01T01:01:29;14.65;;;9.75;;
49464;SDS011;35358;49.342;8.802;2023-03-01T01:03:59;13.82;;;9.57;;
49464;SDS011;35358;49.342;8.802;2023-03-01T01:06:29;13.13;;;8.77;;
49464;SDS011;35358;49.342;8.802;2023-03-01T01:09:02;15.75;;;9.07;;
49464;SDS011;35358;49.342;8.802;2023-03-01T01:11:29;15.57;;;9.95;;
49464;SDS011;35358;49.342;8.802;2023-03-01T01:13:55;14.25;;;9.43;;
49464;SDS011;35358;49.342;8.802;2023-03-01T01:16:22;15.10;;;9.30;;
49464;SDS011;35358;49.342;8.802;2023-03-01T01:18:54;13.82;;;9.93;;
49464;SDS011;35358;49.342;8.802;2023-03-01T01:21:25;12.63;;;9.32;;
49464;SDS011;35358;49.342;8.802;2023-03-01T01:23:52;15.65;;;9.07;;
49464;SDS011;35358;49.342;8.802;2023-03-01T01:26:22;12.68;;;8.52;;
49464;SDS011;35358;49.342;8.802;2023-03-01T01:28:53;14.07;;;8.90;;
49464;SDS011;35358;49.342;8.802;2023-03-01T01:31:19;16.52;;;9.68;;
49464;SDS011;35358;49.342;8.802;2023-03-01T01:33:48;16.52;;;10.07;;
49464;SDS011;35358;49.342;8.802;2023-03-01T01:36:17;14.35;;;9.90;;
49464;SDS011;35358;49.342;8.802;2023-03-01T01:38:45;14.98;;;9.48;;
49464;SDS011;35358;49.342;8.802;2023-03-01T01:41:11;14.90;;;9.63;;
49464;SDS011;35358;49.342;8.802;2023-03-01T01:43:39;17.63;;;9.65;;
49464;SDS011;35358;49.342;8.802;2023-03-01T01:46:15;16.02;;;9.45;;
49464;SDS011;35358;49.342;8.802;2023-03-01T01:49:05;14.52;;;8.90;;
49464;SDS011;35358;49.342;8.802;2023-03-01T01:51:44;18.35;;;10.15;;
49464;SDS011;35358;49.342;8.802;2023-03-01T01:54:18;17.35;;;10.15;;
49464;SDS011;35358;49.342;8.802;2023-03-01T01:57:02;16.00;;;9.45;;
49464;SDS011;35358;49.342;8.802;2023-03-01T01:59:31;14.93;;;9.65;;
49464;SDS011;35358;49.342;8.802;2023-03-01T02:01:59;17.25;;;10.00;;
49464;SDS011;35358;49.342;8.802;2023-03-01T02:04:28;14.60;;;9.25;;
49464;SDS011;35358;49.342;8.802;2023-03-01T02:06:59;18.67;;;10.07;;
49464;SDS011;35358;49.342;8.802;2023-03-01T02:09:28;15.70;;;9.55;;
49464;SDS011;35358;49.342;8.802;2023-03-01T02:11:56;16.67;;;10.38;;
49464;SDS011;35358;49.342;8.802;2023-03-01T02:14:25;14.68;;;9.40;;
49464;SDS011;35358;49.342;8.802;2023-03-01T02:16:51;14.88;;;10.18;;
49464;SDS011;35358;49.342;8.802;2023-03-01T02:19:28;19.83;;;11.05;;
49464;SDS011;35358;49.342;8.802;2023-03-01T02:22:03;17.20;;;11.05;;
49464;SDS011;35358;49.342;8.802;2023-03-01T02:30:10;17.15;;;9.88;;
49464;SDS011;35358;49.342;8.802;2023-03-01T02:32:37;18.63;;;9.88;;
49464;SDS011;35358;49.342;8.802;2023-03-01T02:35:06;15.13;;;10.85;;
49464;SDS011;35358;49.342;8.802;2023-03-01T02:37:37;18.80;;;11.15;;
49464;SDS011;35358;49.342;8.802;2023-03-01T02:40:08;17.48;;;10.75;;
49464;SDS011;35358;49.342;8.802;2023-03-01T02:42:40;16.17;;;9.70;;
49464;SDS011;35358;49.342;8.802;2023-03-01T02:45:16;15.60;;;9.27;;
49464;SDS011;35358;49.342;8.802;2023-03-01T02:47:41;20.08;;;10.52;;
49464;SDS011;35358;49.342;8.802;2023-03-01T02:50:22;16.45;;;11.02;;
49464;SDS011;35358;49.342;8.802;2023-03-01T02:52:57;18.27;;;11.07;;
49464;SDS011;35358;49.342;8.802;2023-03-01T02:55:28;15.30;;;9.13;;
49464;SDS011;35358;49.342;8.802;2023-03-01T02:57:54;15.10;;;9.75;;
49464;SDS011;35358;49.342;8.802;2023-03-01T03:02:53;15.70;;;9.07;;
49464;SDS011;35358;49.342;8.802;2023-03-01T03:05:26;16.33;;;10.40;;
49464;SDS011;35358;49.342;8.802;2023-03-01T03:07:53;16.77;;;10.05;;
49464;SDS011;35358;49.342;8.802;2023-03-01T03:10:23;20.52;;;10.38;;
49464;SDS011;35358;49.342;8.802;2023-03-01T03:12:51;17.42;;;10.32;;
49464;SDS011;35358;49.342;8.802;2023-03-01T03:15:36;18.67;;;12.15;;
49464;SDS011;35358;49.342;8.802;2023-03-01T03:18:04;15.65;;;9.98;;
49464;SDS011;35358;49.342;8.802;2023-03-01T03:20:32;17.55;;;11.25;;
49464;SDS011;35358;49.342;8.802;2023-03-01T03:23:00;16.35;;;10.43;;
49464;SDS011;35358;49.342;8.802;2023-03-01T03:25:28;15.98;;;11.02;;
49464;SDS011;35358;49.342;8.802;2023-03-01T03:28:02;18.55;;;10.95;;
49464;SDS011;35358;49.342;8.802;2023-03-01T03:30:35;17.10;;;10.70;;
49464;SDS011;35358;49.342;8.802;2023-03-01T03:33:05;18.83;;;10.73;;
49464;SDS011;35358;49.342;8.802;2023-03-01T03:35:33;17.15;;;11.02;;
49464;SDS011;35358;49.342;8.802;2023-03-01T03:38:04;16.52;;;10.65;;
49464;SDS011;35358;49.342;8.802;2023-03-01T03:40:40;19.38;;;11.93;;
49464;SDS011;35358;49.342;8.802;2023-03-01T03:43:08;17.13;;;10.48;;
49464;SDS011;35358;49.342;8.802;2023-03-01T03:45:36;13.30;;;9.20;;
49464;SDS011;35358;49.342;8.802;2023-03-01T03:48:02;18.63;;;11.63;;
49464;SDS011;35358;49.342;8.802;2023-03-01T03:50:30;16.83;;;10.38;;
49464;SDS011;35358;49.342;8.802;2023-03-01T03:52:55;17.15;;;11.13;;
49464;SDS011;35358;49.342;8.802;2023-03-01T03:55:21;17.75;;;11.18;;
49464;SDS011;35358;49.342;8.802;2023-03-01T03:57:47;17.08;;;11.15;;
49464;SDS011;35358;49.342;8.802;2023-03-01T04:00:19;17.45;;;11.27;;
49464;SDS011;35358;49.342;8.802;2023-03-01T04:02:47;15.10;;;10.57;;
49464;SDS011;35358;49.342;8.802;2023-03-01T04:05:17;17.50;;;10.75;;
49464;SDS011;35358;49.342;8.802;2023-03-01T04:07:43;18.02;;;11.45;;
49464;SDS011;35358;49.342;8.802;2023-03-01T04:10:14;17.80;;;10.77;;
49464;SDS011;35358;49.342;8.802;2023-03-01T04:12:40;20.13;;;11.07;;
49464;SDS011;35358;49.342;8.802;2023-03-01T04:15:09;19.63;;;11.20;;
49464;SDS011;35358;49.342;8.802;2023-03-01T04:17:42;18.45;;;11.68;;
49464;SDS011;35358;49.342;8.802;2023-03-01T04:20:10;17.23;;;11.52;;
49464;SDS011;35358;49.342;8.802;2023-03-01T04:22:43;20.40;;;13.15;;
49464;SDS011;35358;49.342;8.802;2023-03-01T04:25:11;19.40;;;11.80;;
49464;SDS011;35358;49.342;8.802;2023-03-01T04:27:39;19.45;;;11.90;;
49464;SDS011;35358;49.342;8.802;2023-03-01T04:30:08;18.92;;;10.85;;
49464;SDS011;35358;49.342;8.802;2023-03-01T04:32:37;19.00;;;11.20;;
49464;SDS011;35358;49.342;8.802;2023-03-01T04:35:02;19.45;;;11.75;;
49464;SDS011;35358;49.342;8.802;2023-03-01T04:37:29;21.60;;;13.05;;
49464;SDS011;35358;49.342;8.802;2023-03-01T04:39:59;18.50;;;11.10;;
49464;SDS011;35358;49.342;8.802;2023-03-01T04:42:25;16.67;;;9.10;;
49464;SDS011;35358;49.342;8.802;2023-03-01T04:44:56;18.52;;;11.75;;
49464;SDS011;35358;49.342;8.802;2023-03-01T04:47:23;20.58;;;11.38;;
49464;SDS011;35358;49.342;8.802;2023-03-01T04:49:51;17.08;;;11.60;;
49464;SDS011;35358;49.342;8.802;2023-03-01T04:52:19;21.63;;;12.27;;
49464;SDS011;35358;49.342;8.802;2023-03-01T04:54:45;20.63;;;12.27;;
49464;SDS011;35358;49.342;8.802;2023-03-01T04:57:10;19.73;;;11.00;;
49464;SDS011;35358;49.342;8.802;2023-03-01T04:59:38;19.98;;;11.93;;
49464;SDS011;35358;49.342;8.802;2023-03-01T05:02:06;20.67;;;12.02;;
49464;SDS011;35358;49.342;8.802;2023-03-01T05:04:34;18.52;;;11.73;;
49464;SDS011;35358;49.342;8.802;2023-03-01T05:07:02;21.33;;;12.52;;
49464;SDS011;35358;49.342;8.802;2023-03-01T05:09:30;22.08;;;12.55;;
49464;SDS011;35358;49.342;8.802;2023-03-01T05:11:58;19.15;;;12.07;;
49464;SDS011;35358;49.342;8.802;2023-03-01T05:14:23;20.13;;;12.27;;
49464;SDS011;35358;49.342;8.802;2023-03-01T05:16:51;21.52;;;12.95;;
49464;SDS011;35358;49.342;8.802;2023-03-01T05:19:17;20.40;;;12.48;;
49464;SDS011;35358;49.342;8.802;2023-03-01T05:21:47;21.33;;;12.82;;
49464;SDS011;35358;49.342;8.802;2023-03-01T05:24:31;18.50;;;12.35;;
49464;SDS011;35358;49.342;8.802;2023-03-01T05:27:04;22.85;;;13.63;;
49464;SDS011;35358;49.342;8.802;2023-03-01T05:29:32;20.70;;;13.80;;
49464;SDS011;35358;49.342;8.802;2023-03-01T05:32:02;22.38;;;13.23;;
49464;SDS011;35358;49.342;8.802;2023-03-01T05:34:29;22.92;;;12.88;;
49464;SDS011;35358;49.342;8.802;2023-03-01T05:36:56;18.95;;;11.75;;
49464;SDS011;35358;49.342;8.802;2023-03-01T05:39:27;21.65;;;13.43;;
49464;SDS011;35358;49.342;8.802;2023-03-01T05:41:58;21.55;;;12.18;;
49464;SDS011;35358;49.342;8.802;2023-03-01T05:44:30;24.45;;;13.45;;
49464;SDS011;35358;49.342;8.802;2023-03-01T05:46:58;21.08;;;12.25;;
49464;SDS011;35358;49.342;8.802;2023-03-01T05:49:24;22.73;;;12.48;;
49464;SDS011;35358;49.342;8.802;2023-03-01T05:51:51;19.98;;;12.98;;
49464;SDS011;35358;49.342;8.802;2023-03-01T05:54:18;20.35;;;11.95;;
49464;SDS011;35358;49.342;8.802;2023-03-01T05:56:45;19.65;;;11.77;;
49464;SDS011;35358;49.342;8.802;2023-03-01T05:59:13;20.25;;;11.80;;
49464;SDS011;35358;49.342;8.802;2023-03-01T06:01:41;21.15;;;12.90;;
49464;SDS011;35358;49.342;8.802;2023-03-01T06:04:07;21.55;;;12.48;;
49464;SDS011;35358;49.342;8.802;2023-03-01T06:06:36;19.40;;;12.00;;
49464;SDS011;35358;49.342;8.802;2023-03-01T06:09:06;21.00;;;12.43;;
49464;SDS011;35358;49.342;8.802;2023-03-01T06:11:36;27.40;;;13.63;;
49464;SDS011;35358;49.342;8.802;2023-03-01T06:14:05;21.27;;;12.60;;
49464;SDS011;35358;49.342;8.802;2023-03-01T06:16:32;21.75;;;12.88;;
49464;SDS011;35358;49.342;8.802;2023-03-01T06:19:03;24.02;;;14.07;;
49464;SDS011;35358;49.342;8.802;2023-03-01T06:21:28;23.02;;;14.05;;
49464;SDS011;35358;49.342;8.802;2023-03-01T06:23:54;21.65;;;13.30;;
49464;SDS011;35358;49.342;8.802;2023-03-01T06:26:19;22.58;;;13.02;;
49464;SDS011;35358;49.342;8.802;2023-03-01T06:28:45;22.42;;;12.35;;
49464;SDS011;35358;49.342;8.802;2023-03-01T06:31:13;21.15;;;13.02;;
49464;SDS011;35358;49.342;8.802;2023-03-01T06:33:41;21.88;;;12.15;;
49464;SDS011;35358;49.342;8.802;2023-03-01T06:36:06;23.02;;;13.35;;
49464;SDS011;35358;49.342;8.802;2023-03-01T06:38:33;19.13;;;12.90;;
49464;SDS011;35358;49.342;8.802;2023-03-01T06:40:58;23.30;;;13.52;;
49464;SDS011;35358;49.342;8.802;2023-03-01T06:43:24;22.30;;;13.32;;
49464;SDS011;35358;49.342;8.802;2023-03-01T06:45:52;26.27;;;13.63;;
49464;SDS011;35358;49.342;8.802;2023-03-01T06:48:17;25.95;;;13.40;;
49464;SDS011;35358;49.342;8.802;2023-03-01T06:50:45;21.10;;;13.27;;
49464;SDS011;35358;49.342;8.802;2023-03-01T06:53:13;20.30;;;12.25;;
49464;SDS011;35358;49.342;8.802;2023-03-01T06:55:39;19.88;;;12.82;;
49464;SDS011;35358;49.342;8.802;2023-03-01T06:58:08;19.80;;;13.00;;
49464;SDS011;35358;49.342;8.802;2023-03-01T07:00:37;23.08;;;13.77;;
49464;SDS011;35358;49.342;8.802;2023-03-01T07:03:05;20.83;;;13.05;;
49464;SDS011;35358;49.342;8.802;2023-03-01T07:05:30;22.75;;;13.35;;
49464;SDS011;35358;49.342;8.802;2023-03-01T07:07:57;22.52;;;12.93;;
49464;SDS011;35358;49.342;8.802;2023-03-01T07:10:23;20.23;;;13.02;;
49464;SDS011;35358;49.342;8.802;2023-03-01T07:12:52;21.25;;;13.38;;
49464;SDS011;35358;49.342;8.802;2023-03-01T07:15:19;21.13;;;14.02;;
49464;SDS011;35358;49.342;8.802;2023-03-01T07:17:48;20.00;;;13.25;;
49464;SDS011;35358;49.342;8.802;2023-03-01T07:20:15;20.35;;;12.85;;
49464;SDS011;35358;49.342;8.802;2023-03-01T07:22:42;21.08;;;13.05;;
49464;SDS011;35358;49.342;8.802;2023-03-01T07:25:09;19.85;;;13.02;;
49464;SDS011;35358;49.342;8.802;2023-03-01T07:27:35;24.25;;;15.00;;
49464;SDS011;35358;49.342;8.802;2023-03-01T07:30:03;22.27;;;14.50;;
49464;SDS011;35358;49.342;8.802;2023-03-01T07:32:32;20.65;;;13.18;;
49464;SDS011;35358;49.342;8.802;2023-03-01T07:34:57;20.77;;;12.60;;
49464;SDS011;35358;49.342;8.802;2023-03-01T07:37:25;21.98;;;14.38;;
49464;SDS011;35358;49.342;8.802;2023-03-01T07:39:55;20.35;;;12.57;;
49464;SDS011;35358;49.342;8.802;2023-03-01T07:42:21;21.80;;;12.30;;
49464;SDS011;35358;49.342;8.802;2023-03-01T07:44:49;25.52;;;14.55;;
49464;SDS011;35358;49.342;8.802;2023-03-01T07:47:15;22.38;;;14.32;;
49464;SDS011;35358;49.342;8.802;2023-03-01T07:49:43;21.67;;;13.05;;
49464;SDS011;35358;49.342;8.802;2023-03-01T07:52:11;22.60;;;13.73;;
49464;SDS011;35358;49.342;8.802;2023-03-01T07:54:37;25.97;;;13.20;;
49464;SDS011;35358;49.342;8.802;2023-03-01T07:57:07;21.77;;;13.48;;
49464;SDS011;35358;49.342;8.802;2023-03-01T07:59:35;23.05;;;13.23;;
49464;SDS011;35358;49.342;8.802;2023-03-01T08:02:00;18.80;;;12.43;;
49464;SDS011;35358;49.342;8.802;2023-03-01T08:04:26;21.17;;;12.70;;
49464;SDS011;35358;49.342;8.802;2023-03-01T08:06:54;21.00;;;12.45;;
49464;SDS011;35358;49.342;8.802;2023-03-01T08:09:20;20.65;;;12.35;;
49464;SDS011;35358;49.342;8.802;2023-03-01T08:11:46;19.75;;;12.40;;
49464;SDS011;35358;49.342;8.802;2023-03-01T08:14:12;21.65;;;12.98;;
49464;SDS011;35358;49.342;8.802;2023-03-01T08:16:37;24.35;;;14.50;;
49464;SDS011;35358;49.342;8.802;2023-03-01T08:19:06;21.13;;;12.70;;
49464;SDS011;35358;49.342;8.802;2023-03-01T08:21:33;21.60;;;13.02;;
49464;SDS011;35358;49.342;8.802;2023-03-01T08:24:00;25.35;;;14.52;;
49464;SDS011;35358;49.342;8.802;2023-03-01T08:26:26;20.48;;;12.52;;
49464;SDS011;35358;49.342;8.802;2023-03-01T08:28:52;22.67;;;12.85;;
49464;SDS011;35358;49.342;8.802;2023-03-01T08:31:22;23.55;;;12.95;;
49464;SDS011;35358;49.342;8.802;2023-03-01T08:33:53;22.38;;;11.98;;
49464;SDS011;35358;49.342;8.802;2023-03-01T08:36:26;20.27;;;14.23;;
49464;SDS011;35358;49.342;8.802;2023-03-01T08:38:53;22.40;;;12.90;;
49464;SDS011;35358;49.342;8.802;2023-03-01T08:41:24;23.75;;;14.60;;
49464;SDS011;35358;49.342;8.802;2023-03-01T08:43:52;19.35;;;13.10;;
49464;SDS011;35358;49.342;8.802;2023-03-01T08:46:23;21.10;;;13.23;;
49464;SDS011;35358;49.342;8.802;2023-03-01T08:49:02;21.85;;;14.07;;
49464;SDS011;35358;49.342;8.802;2023-03-01T08:51:32;23.92;;;13.95;;
49464;SDS011;35358;49.342;8.802;2023-03-01T08:54:05;20.20;;;13.45;;
49464;SDS011;35358;49.342;8.802;2023-03-01T08:56:34;28.73;;;14.70;;
49464;SDS011;35358;49.342;8.802;2023-03-01T08:59:00;23.50;;;13.45;;
49464;SDS011;35358;49.342;8.802;2023-03-01T09:01:27;20.83;;;13.65;;
49464;SDS011;35358;49.342;8.802;2023-03-01T09:03:53;24.08;;;14.10;;
49464;SDS011;35358;49.342;8.802;2023-03-01T09:06:24;20.88;;;13.88;;
49464;SDS011;35358;49.342;8.802;2023-03-01T09:08:50;24.35;;;13.98;;
49464;SDS011;35358;49.342;8.802;2023-03-01T09:11:21;21.63;;;13.43;;
49464;SDS011;35358;49.342;8.802;2023-03-01T09:13:47;23.23;;;15.07;;
49464;SDS011;35358;49.342;8.802;2023-03-01T09:16:18;23.43;;;15.57;;
49464;SDS011;35358;49.342;8.802;2023-03-01T09:18:51;21.67;;;15.05;;
49464;SDS011;35358;49.342;8.802;2023-03-01T09:21:20;20.15;;;13.57;;
49464;SDS011;35358;49.342;8.802;2023-03-01T09:23:47;23.38;;;13.43;;
49464;SDS011;35358;49.342;8.802;2023-03-01T09:26:17;22.75;;;13.77;;
49464;SDS011;35358;49.342;8.802;2023-03-01T09:28:46;23.80;;;14.70;;
49464;SDS011;35358;49.342;8.802;2023-03-01T09:31:13;21.90;;;13.50;;
49464;SDS011;35358;49.342;8.802;2023-03-01T09:33:42;21.95;;;13.43;;
49464;SDS011;35358;49.342;8.802;2023-03-01T09:36:11;25.02;;;15.10;;
49464;SDS011;35358;49.342;8.802;2023-03-01T09:38:41;18.73;;;13.77;;
49464;SDS011;35358;49.342;8.802;2023-03-01T09:41:11;21.38;;;13.27;;
49464;SDS011;35358;49.342;8.802;2023-03-01T09:43:56;20.52;;;13.35;;
49464;SDS011;35358;49.342;8.802;2023-03-01T09:46:29;20.60;;;13.27;;
49464;SDS011;35358;49.342;8.802;2023-03-01T09:49:05;21.70;;;14.25;;
49464;SDS011;35358;49.342;8.802;2023-03-01T09:51:54;21.95;;;14.38;;
49464;SDS011;35358;49.342;8.802;2023-03-01T09:54:26;24.88;;;14.50;;
49464;SDS011;35358;49.342;8.802;2023-03-01T10:04:52;21.88;;;13.23;;
49464;SDS011;35358;49.342;8.802;2023-03-01T10:09:59;22.98;;;13.75;;
49464;SDS011;35358;49.342;8.802;2023-03-01T10:12:36;22.48;;;14.52;;
49464;SDS011;35358;49.342;8.802;2023-03-01T10:15:11;21.08;;;13.13;;
49464;SDS011;35358;49.342;8.802;2023-03-01T10:22:44;19.25;;;13.45;;
49464;SDS011;35358;49.342;8.802;2023-03-01T10:25:20;18.15;;;12.82;;
49464;SDS011;35358;49.342;8.802;2023-03-01T10:27:53;21.60;;;13.98;;
49464;SDS011;35358;49.342;8.802;2023-03-01T10:30:32;21.75;;;14.13;;
49464;SDS011;35358;49.342;8.802;2023-03-01T10:36:07;21.58;;;13.40;;
49464;SDS011;35358;49.342;8.802;2023-03-01T10:38:52;20.75;;;13.13;;
49464;SDS011;35358;49.342;8.802;2023-03-01T10:41:22;21.80;;;13.00;;
49464;SDS011;35358;49.342;8.802;2023-03-01T10:43:54;19.63;;;13.25;;
49464;SDS011;35358;49.342;8.802;2023-03-01T10:49:05;19.52;;;12.35;;
49464;SDS011;35358;49.342;8.802;2023-03-01T10:51:37;20.65;;;13.23;;
49464;SDS011;35358;49.342;8.802;2023-03-01T10:56:56;19.92;;;13.13;;
49464;SDS011;35358;49.342;8.802;2023-03-01T10:59:28;22.75;;;12.95;;
49464;SDS011;35358;49.342;8.802;2023-03-01T11:04:27;19.58;;;12.93;;
49464;SDS011;35358;49.342;8.802;2023-03-01T11:06:58;20.02;;;13.52;;
49464;SDS011;35358;49.342;8.802;2023-03-01T11:09:25;19.48;;;13.00;;
49464;SDS011;35358;49.342;8.802;2023-03-01T11:11:53;21.98;;;13.40;;
49464;SDS011;35358;49.342;8.802;2023-03-01T11:16:48;19.38;;;12.48;;
49464;SDS011;35358;49.342;8.802;2023-03-01T11:19:59;20.45;;;12.85;;
49464;SDS011;35358;49.342;8.802;2023-03-01T11:22:33;20.45;;;12.88;;
49464;SDS011;35358;49.342;8.802;2023-03-01T11:25:02;17.15;;;11.95;;
49464;SDS011;35358;49.342;8.802;2023-03-01T11:27:30;23.23;;;13.68;;
49464;SDS011;35358;49.342;8.802;2023-03-01T11:40:39;20.23;;;12.90;;
49464;SDS011;35358;49.342;8.802;2023-03-01T11:56:51;18.00;;;12.63;;
49464;SDS011;35358;49.342;8.802;2023-03-01T11:59:40;20.42;;;13.10;;
49464;SDS011;35358;49.342;8.802;2023-03-01T12:07:51;18.75;;;12.52;;
49464;SDS011;35358;49.342;8.802;2023-03-01T12:10:27;20.63;;;12.45;;
49464;SDS011;35358;49.342;8.802;2023-03-01T12:18:25;17.35;;;12.40;;
49464;SDS011;35358;49.342;8.802;2023-03-01T12:36:43;16.33;;;12.35;;
49464;SDS011;35358;49.342;8.802;2023-03-01T12:44:45;19.08;;;13.05;;
49464;SDS011;35358;49.342;8.802;2023-03-01T12:47:35;16.13;;;11.48;;
49464;SDS011;35358;49.342;8.802;2023-03-01T12:50:22;18.60;;;11.00;;
49464;SDS011;35358;49.342;8.802;2023-03-01T12:52:58;22.17;;;13.98;;
49464;SDS011;35358;49.342;8.802;2023-03-01T13:00:35;13.70;;;10.38;;
49464;SDS011;35358;49.342;8.802;2023-03-01T13:06:07;17.13;;;10.82;;
49464;SDS011;35358;49.342;8.802;2023-03-01T13:11:27;14.80;;;10.15;;
49464;SDS011;35358;49.342;8.802;2023-03-01T13:14:08;18.63;;;10.27;;
49464;SDS011;35358;49.342;8.802;2023-03-01T13:16:51;18.33;;;11.45;;
49464;SDS011;35358;49.342;8.802;2023-03-01T13:21:47;14.13;;;10.38;;
49464;SDS011;35358;49.342;8.802;2023-03-01T13:24:25;15.60;;;11.38;;
49464;SDS011;35358;49.342;8.802;2023-03-01T13:32:28;16.58;;;11.27;;
49464;SDS011;35358;49.342;8.802;2023-03-01T13:35:03;18.80;;;12.48;;
49464;SDS011;35358;49.342;8.802;2023-03-01T13:37:51;16.30;;;11.27;;
49464;SDS011;35358;49.342;8.802;2023-03-01T13:42:51;16.00;;;10.68;;
49464;SDS011;35358;49.342;8.802;2023-03-01T13:45:33;17.15;;;11.68;;
49464;SDS011;35358;49.342;8.802;2023-03-01T13:50:38;13.75;;;10.40;;
49464;SDS011;35358;49.342;8.802;2023-03-01T13:53:15;15.65;;;11.43;;
49464;SDS011;35358;49.342;8.802;2023-03-01T13:55:47;14.18;;;10.25;;
49464;SDS011;35358;49.342;8.802;2023-03-01T13:58:21;14.30;;;10.38;;
49464;SDS011;35358;49.342;8.802;2023-03-01T14:01:06;15.23;;;10.55;;
49464;SDS011;35358;49.342;8.802;2023-03-01T14:03:34;17.27;;;10.55;;
49464;SDS011;35358;49.342;8.802;2023-03-01T14:06:13;16.05;;;10.65;;
49464;SDS011;35358;49.342;8.802;2023-03-01T14:08:48;15.00;;;11.27;;
49464;SDS011;35358;49.342;8.802;2023-03-01T14:14:01;13.05;;;9.73;;
49464;SDS011;35358;49.342;8.802;2023-03-01T14:16:40;14.40;;;10.50;;
49464;SDS011;35358;49.342;8.802;2023-03-01T14:19:29;21.73;;;11.43;;
49464;SDS011;35358;49.342;8.802;2023-03-01T14:25:03;15.90;;;11.20;;
49464;SDS011;35358;49.342;8.802;2023-03-01T14:27:40;16.65;;;10.98;;
49464;SDS011;35358;49.342;8.802;2023-03-01T14:30:55;16.05;;;11.43;;
49464;SDS011;35358;49.342;8.802;2023-03-01T14:32:58;14.02;;;10.23;;
49464;SDS011;35358;49.342;8.802;2023-03-01T14:35:27;16.48;;;10.18;;
49464;SDS011;35358;49.342;8.802;2023-03-01T14:37:54;21.15;;;10.70;;
49464;SDS011;35358;49.342;8.802;2023-03-01T14:40:31;15.73;;;10.75;;
49464;SDS011;35358;49.342;8.802;2023-03-01T14:43:03;14.43;;;10.52;;
49464;SDS011;35358;49.342;8.802;2023-03-01T14:45:35;16.70;;;11.55;;
49464;SDS011;35358;49.342;8.802;2023-03-01T14:48:02;14.75;;;11.63;;
49464;SDS011;35358;49.342;8.802;2023-03-01T14:50:31;18.08;;;11.98;;
49464;SDS011;35358;49.342;8.802;2023-03-01T14:53:00;14.77;;;10.70;;
49464;SDS011;35358;49.342;8.802;2023-03-01T14:55:37;17.88;;;10.00;;
49464;SDS011;35358;49.342;8.802;2023-03-01T14:58:14;13.57;;;9.43;;
49464;SDS011;35358;49.342;8.802;2023-03-01T15:00:45;16.58;;;10.82;;
49464;SDS011;35358;49.342;8.802;2023-03-01T15:03:20;13.85;;;10.95;;
49464;SDS011;35358;49.342;8.802;2023-03-01T15:05:51;17.23;;;10.80;;
49464;SDS011;35358;49.342;8.802;2023-03-01T15:08:18;15.90;;;11.70;;
49464;SDS011;35358;49.342;8.802;2023-03-01T15:11:03;14.98;;;10.73;;
49464;SDS011;35358;49.342;8.802;2023-03-01T15:13:43;14.10;;;10.50;;
49464;SDS011;35358;49.342;8.802;2023-03-01T15:16:27;15.70;;;10.93;;
49464;SDS011;35358;49.342;8.802;2023-03-01T15:18:59;15.13;;;11.35;;
49464;SDS011;35358;49.342;8.802;2023-03-01T15:21:36;16.13;;;9.95;;
49464;SDS011;35358;49.342;8.802;2023-03-01T15:26:44;12.40;;;9.23;;
49464;SDS011;35358;49.342;8.802;2023-03-01T15:29:32;14.13;;;9.85;;
49464;SDS011;35358;49.342;8.802;2023-03-01T15:32:20;15.55;;;10.98;;
49464;SDS011;35358;49.342;8.802;2023-03-01T15:34:48;14.35;;;10.68;;
49464;SDS011;35358;49.342;8.802;2023-03-01T15:43:06;14.07;;;10.38;;
49464;SDS011;35358;49.342;8.802;2023-03-01T15:45:57;14.85;;;10.75;;
49464;SDS011;35358;49.342;8.802;2023-03-01T15:48:26;16.35;;;10.70;;
49464;SDS011;35358;49.342;8.802;2023-03-01T15:50:56;13.20;;;9.23;;
49464;SDS011;35358;49.342;8.802;2023-03-01T15:53:26;14.57;;;9.95;;
49464;SDS011;35358;49.342;8.802;2023-03-01T15:55:53;15.50;;;10.48;;
49464;SDS011;35358;49.342;8.802;2023-03-01T15:58:22;14.77;;;10.20;;
49464;SDS011;35358;49.342;8.802;2023-03-01T16:00:49;12.93;;;9.23;;
49464;SDS011;35358;49.342;8.802;2023-03-01T16:03:20;14.18;;;9.45;;
49464;SDS011;35358;49.342;8.802;2023-03-01T16:05:49;13.75;;;10.15;;
49464;SDS011;35358;49.342;8.802;2023-03-01T16:08:15;12.13;;;9.18;;
49464;SDS011;35358;49.342;8.802;2023-03-01T16:10:42;12.80;;;9.85;;
49464;SDS011;35358;49.342;8.802;2023-03-01T16:13:11;11.90;;;9.13;;
49464;SDS011;35358;49.342;8.802;2023-03-01T16:15:40;11.85;;;8.95;;
49464;SDS011;35358;49.342;8.802;2023-03-01T16:18:08;14.30;;;9.65;;
49464;SDS011;35358;49.342;8.802;2023-03-01T16:20:36;12.98;;;9.45;;
49464;SDS011;35358;49.342;8.802;2023-03-01T16:23:07;14.88;;;9.20;;
49464;SDS011;35358;49.342;8.802;2023-03-01T16:25:37;15.45;;;10.25;;
49464;SDS011;35358;49.342;8.802;2023-03-01T16:28:03;11.93;;;9.45;;
49464;SDS011;35358;49.342;8.802;2023-03-01T16:30:33;13.15;;;9.60;;
49464;SDS011;35358;49.342;8.802;2023-03-01T16:33:00;21.38;;;10.40;;
49464;SDS011;35358;49.342;8.802;2023-03-01T16:35:28;13.52;;;9.45;;
49464;SDS011;35358;49.342;8.802;2023-03-01T16:37:54;13.77;;;9.55;;
49464;SDS011;35358;49.342;8.802;2023-03-01T16:40:23;14.63;;;9.02;;
49464;SDS011;35358;49.342;8.802;2023-03-01T16:42:55;12.93;;;8.88;;
49464;SDS011;35358;49.342;8.802;2023-03-01T16:45:33;13.55;;;9.32;;
49464;SDS011;35358;49.342;8.802;2023-03-01T16:48:05;15.50;;;9.20;;
49464;SDS011;35358;49.342;8.802;2023-03-01T16:50:31;10.95;;;8.15;;
49464;SDS011;35358;49.342;8.802;2023-03-01T16:52:59;15.00;;;8.55;;